utilisation pie
utilisation bar
humidity graph
temperature graph
Station id: f3370e for 2 days

start:   stop:  

day time in temp out temp in RH out RH H quota rule action
2020-01-18 00:02:51 6.2 5.8 85 94 108 m
2
2020-01-18 00:33:03 6.4 5.6 81 95 111 h 0
2020-01-18 01:03:15 6.3 5.6 84 95 108 h 0
2020-01-18 01:33:27 6.2 5.7 84 95 109 h 0
2020-01-18 02:03:39 6.2 5.8 85 96 110 m
2
2020-01-18 02:33:51 6.4 6.0 82 95 113 h 0
2020-01-18 03:04:04 6.3 6.2 85 95 111 m
2
2020-01-18 03:34:16 6.7 6.3 82 95 113 h 0
2020-01-18 04:04:28 6.5 6.5 84 95 113 h 0
2020-01-18 04:34:40 6.4 6.5 85 95 113 m
2
2020-01-18 05:04:52 6.6 6.4 81 95 116 h 0
2020-01-18 05:35:04 6.5 6.0 83 95 110 h 0
2020-01-18 06:05:17 6.4 6.0 85 95 109 m
2
2020-01-18 06:35:29 6.7 6.1 80 95 113 h 0
2020-01-18 07:05:41 6.5 5.9 83 94 108 h 0
2020-01-18 07:35:53 6.4 5.6 84 93 105 h 0
2020-01-18 08:06:05 6.3 5.7 85 93 106 h 0
2020-01-18 08:36:18 6.2 5.7 85 93 106 m
2
2020-01-18 09:06:30 6.4 5.6 80 92 108 h 0
2020-01-18 09:36:42 6.4 5.7 83 91 104 h 0
2020-01-18 10:06:54 6.3 5.6 84 92 105 h 0
2020-01-18 10:37:06 6.3 5.7 84 91 104 h 0
2020-01-18 11:07:19 6.2 5.7 84 91 104 h 0
2020-01-18 11:37:31 6.2 5.7 84 90 103 h 0
2020-01-18 12:07:43 6.2 5.7 85 92 105 h 0
2020-01-18 12:37:55 6.2 5.7 85 92 105 h 0
2020-01-18 13:08:07 6.2 5.7 85 94 107 m
2
2020-01-18 13:38:19 6.5 5.9 80 92 111 h 0
2020-01-18 14:08:32 6.4 6.0 83 91 107 h 0
2020-01-18 14:38:44 6.3 6.0 83 91 107 h 0
2020-01-18 15:08:56 6.3 6.0 84 91 107 h 0
2020-01-18 15:39:08 6.3 6.0 84 91 106 h 0
2020-01-18 16:09:20 6.2 5.8 84 91 105 h 0
2020-01-18 16:39:32 6.2 5.7 85 92 105 h 0
2020-01-18 17:09:45 6.2 5.7 85 92 105 m
2
2020-01-18 17:39:57 6.4 5.7 81 92 109 h 0
2020-01-18 18:10:09 6.3 5.7 83 92 106 h 0
2020-01-18 18:40:21 6.2 5.7 84 93 107 h 0
2020-01-18 19:10:33 6.2 5.6 84 93 106 h 0
2020-01-18 19:40:45 6.2 5.7 85 93 107 h 0
2020-01-18 20:10:58 6.1 5.5 85 93 105 m
2
2020-01-18 20:41:10 6.4 5.5 80 93 110 h 0
2020-01-18 21:11:22 6.3 5.5 83 93 107 h 0
2020-01-18 21:41:35 6.2 5.5 84 93 106 h 0
2020-01-18 22:11:47 6.1 5.4 84 93 105 h 0
2020-01-18 22:41:59 6.0 5.3 84 93 105 h 0
2020-01-18 23:12:11 6.0 5.2 84 93 104 h 0
2020-01-18 23:42:23 6.0 5.1 85 92 103 h 0
2020-01-19 00:03:19 5.9 5.0 85 92 102 h 0
2020-01-19 00:33:40 5.9 4.9 85 93 103 h 0
2020-01-19 01:03:51 5.8 4.8 85 93 102 h 0
2020-01-19 01:34:03 5.8 4.8 85 93 102 h 0
2020-01-19 02:04:15 5.7 4.7 85 93 102 h 0
2020-01-19 02:34:48 5.7 4.5 85 94 102 h 0
2020-01-19 03:04:59 5.7 4.7 85 95 105 h 0
2020-01-19 03:35:11 5.7 4.8 85 94 104 h 0
2020-01-19 04:05:23 5.6 4.8 85 94 104 h 0
2020-01-19 04:35:34 5.6 4.7 85 94 104 h 0
2020-01-19 05:05:46 5.6 4.6 85 94 103 h 0
2020-01-19 05:35:57 5.6 4.7 85 94 104 h 0
2020-01-19 06:06:09 5.6 4.5 86 94 102 m
2
2020-01-19 06:36:20 5.8 4.5 81 95 108 h 0
2020-01-19 07:06:32 5.8 4.2 83 95 103 h 0
2020-01-19 07:36:44 5.7 4.1 84 95 102 h 0
2020-01-19 08:06:55 5.6 3.9 85 95 100 h 0
2020-01-19 08:37:07 5.5 3.7 85 94 98 h 0
2020-01-19 09:07:18 5.5 3.4 85 94 96 h 0
2020-01-19 09:37:30 5.5 4.2 85 95 103 h 0
2020-01-19 10:07:41 5.5 5.2 85 94 109 h 0
2020-01-19 10:37:53 5.6 6.1 84 90 110 h 0
2020-01-19 11:08:05 5.7 6.4 84 88 110 h 0
2020-01-19 11:38:16 5.8 5.4 84 93 108 h 0
2020-01-19 12:08:28 6.1 5.6 83 92 107 h 0
2020-01-19 12:38:39 6.4 5.8 83 92 107 h 0
2020-01-19 13:08:51 6.6 5.9 82 92 106 h 0
2020-01-19 13:39:02 6.8 6.0 82 89 103 h 0
2020-01-19 14:09:14 7.0 6.0 81 89 103 h 0
2020-01-19 14:39:26 7.0 5.8 80 89 102 h 0
2020-01-19 15:09:37 7.0 5.6 80 89 101 h 0
2020-01-19 15:39:49 6.8 5.5 80 90 102 h 0
2020-01-19 16:10:00 6.7 5.1 81 90 100 h 0
2020-01-19 16:40:12 6.5 5.0 81 90 100 h 0
2020-01-19 17:10:23 6.4 4.8 81 90 99 h 0
2020-01-19 17:40:35 6.3 4.7 81 90 100 h 0
2020-01-19 18:10:46 6.2 4.5 81 90 100 h 0
2020-01-19 18:40:58 6.1 4.5 80 91 102 h 0


2020-01-19 19:43:30 CET